N5COP Weather Reports


Display with metric or nautical units.
time (UTC)temp
F
wind
direction
speed
MPH
gust
MPH
rain 1hr
in
rain 24hr
in
rain mn
in
humidity
%
barometer
mb
20240530071150 68 171 17.0 22.0 0.00 0.02 0.02 75 1014.0
20240530070648 67 180 11.0 23.0 0.00 0.02 0.02 79 1014.4
20240530070147 68 197 16.0 20.0 0.00 0.02 0.02 75 1014.5
20240530065646 68 175 10.0 19.0 0.00 0.02 0.02 76 1014.7
20240530065145 68 180 10.0 19.0 0.00 0.02 0.02 77 1015.1
20240530064644 67 163 12.0 18.0 0.00 0.02 0.02 78 1015.6
20240530063641 68 177 10.0 16.0 0.00 0.02 0.02 76 1016.5
20240530063140 69 186 12.0 17.0 0.00 0.02 0.02 74 1016.6
20240530062639 68 163 14.0 16.0 0.00 0.02 0.02 75 1016.2
20240530062137 69 206 20.0 25.0 0.00 0.02 0.02 73 1016.5
20240530061637 69 172 12.0 19.0 0.00 0.02 0.02 75 1016.2
20240530061136 69 173 15.0 19.0 0.00 0.02 0.02 74 1016.6
20240530060634 69 183 19.0 21.0 0.00 0.02 0.02 74 1016.9
20240530060134 68 172 7.0 22.0 0.00 0.02 0.02 76 1017.0
20240530055631 68 166 12.0 15.0 0.00 0.02 0.02 78 1017.3
20240530055129 67 169 13.0 15.0 0.00 0.02 0.02 79 1017.3
20240530054628 67 159 14.0 16.0 0.00 0.02 0.02 79 1017.3
20240530054128 67 163 10.0 17.0 0.00 0.02 0.02 76 1017.0
20240530053626 67 162 13.0 16.0 0.00 0.02 0.02 75 1017.8
20240530053124 67 181 17.0 20.0 0.00 0.02 0.02 79 1017.4
20240530052623 67 181 17.0 20.0 0.00 0.02 0.02 79 1017.5
20240530052123 67 181 17.0 20.0 0.04 0.02 0.02 79 1017.4
20240530051622 66 166 29.0 31.0 0.14 0.02 0.02 83 1017.2
20240530051121 66 162 22.0 35.0 0.09 0.01 0.01 83 1016.9
20240530050619 69 166 20.0 36.0 0.02 0.00 0.00 74 1017.3
20240530050118 69 181 16.0 33.0 0.00 0.00 0.00 69 1018.0
20240530045617 71 144 19.0 21.0 0.00 0.00 0.00 61 1017.4
20240530045116 71 144 19.0 21.0 0.00 0.00 0.00 61 1017.5
20240530044615 71 147 21.0 23.0 0.00 0.00 0.00 60 1017.3
20240530044113 72 140 15.0 26.0 0.00 0.00 0.00 60 1017.3
20240530043612 71 146 21.0 24.0 0.00 0.00 0.00 62 1017.9
20240530043112 0 0.0 0.0 0.00 0.00 0.00 1018.3
20240530042609 0 0.0 0.0 0.00 0.00 0.00 1018.4
20240530042109 0 0.0 0.0 0.00 0.00 0.00 1018.8
20240530041608 0 0.0 0.0 0.00 0.00 0.00 1019.1
20240530041107 0 0.0 0.0 0.00 0.00 0.00 1018.9
20240530040606 0 0.0 0.0 0.00 0.00 0.00 1018.5
20240530040104 0 0.0 0.0 0.00 0.00 0.00 1018.4
20240530035603 0 0.0 0.0 0.00 0.00 0.00 1018.2
20240530035102 0 0.0 0.0 0.00 0.00 0.00 1018.3
20240530034601 0 0.0 0.0 0.00 0.00 0.00 1018.3
20240530034101 0 0.0 0.0 0.00 0.00 0.00 1017.9
20240530033601 0 0.0 0.0 0.00 0.00 0.00 1018.0
20240530033101 72 126 14.0 20.0 0.00 0.00 0.00 60 1018.2
20240530032559 72 126 14.0 20.0 0.00 0.00 0.00 60 1017.9
20240530032059 72 126 14.0 20.0 0.00 0.00 0.00 60 1018.1
20240530031559 72 126 14.0 20.0 0.00 0.00 0.00 60 1018.1
20240530031056 72 126 14.0 20.0 0.00 0.00 0.00 60 1017.8
20240530030556 72 126 14.0 20.0 0.00 0.00 0.00 60 1017.7
20240530030054 72 126 14.0 20.0 0.00 0.00 0.00 60 1018.0
20240530025552 72 126 14.0 20.0 0.00 0.00 0.00 60 1018.0
20240530025051 72 126 14.0 20.0 0.00 0.00 0.00 60 1018.0
20240530024550 72 126 14.0 20.0 0.00 0.00 0.00 60 1017.5
20240530024050 72 126 14.0 20.0 0.00 0.00 0.00 60 1017.3
20240530023548 72 126 14.0 20.0 0.00 0.00 0.00 60 1017.4
20240530023048 72 130 11.0 20.0 0.00 0.00 0.00 61 1017.2
20240530022547 72 123 16.0 20.0 0.00 0.00 0.00 60 1017.3
20240530022047 72 129 17.0 21.0 0.00 0.00 0.00 60 1017.3
20240530021545 73 127 17.0 23.0 0.00 0.00 0.00 60 1017.3
20240530021043 73 123 19.0 24.0 0.00 0.00 0.00 59 1017.2
20240530020542 73 134 15.0 24.0 0.00 0.00 0.00 58 1017.1
20240530020041 74 126 20.0 23.0 0.00 0.00 0.00 58 1017.1
20240530015540 74 134 14.0 20.0 0.00 0.00 0.00 58 1017.2
20240530015039 74 133 20.0 23.0 0.00 0.00 0.00 58 1017.3
20240530014539 75 156 11.0 24.0 0.00 0.00 0.00 57 1017.5
20240530014037 75 143 17.0 20.0 0.00 0.00 0.00 56 1017.7
20240530013531 76 136 15.0 19.0 0.00 0.00 0.00 55 1017.3
20240530013028 76 144 14.0 16.0 0.00 0.00 0.00 55 1017.5
20240530012528 0 0.0 0.0 0.00 0.00 0.00 1017.4
20240530012026 0 0.0 0.0 0.00 0.00 0.00 1017.3
20240530011500 0 0.0 0.0 0.00 0.00 0.00 1017.3
20240530010959 0 0.0 0.0 0.00 0.00 0.00 1017.4
20240530010458 0 0.0 0.0 0.00 0.00 0.00 1017.1
20240530005955 0 0.0 0.0 0.00 0.00 0.00 1017.3
20240530005452 0 0.0 0.0 0.00 0.00 0.00 1017.1
20240530004949 81 139 11.0 23.0 0.00 0.00 0.00 46 1017.3
20240530004448 81 139 11.0 23.0 0.00 0.00 0.00 46 1017.3
20240530003947 81 139 11.0 23.0 0.00 0.00 0.00 46 1017.1
20240530003446 81 139 11.0 23.0 0.00 0.00 0.00 46 1017.1
20240530002944 81 139 11.0 23.0 0.00 0.00 0.00 46 1017.1
20240530002442 81 139 11.0 23.0 0.00 0.00 0.00 46 1017.2
20240530001941 81 139 11.0 23.0 0.00 0.00 0.00 46 1017.0
20240530001440 81 139 11.0 23.0 0.00 0.00 0.00 46 1017.0
20240530000939 81 139 11.0 23.0 0.00 0.00 0.00 46 1017.1
20240530000441 81 139 11.0 23.0 0.00 0.00 0.00 46 1016.9
20240529235940 81 139 11.0 23.0 0.00 0.00 0.00 46 1017.0
20240529235439 81 139 11.0 23.0 0.00 0.00 0.00 46 1017.1
20240529234939 82 208 10.0 12.0 0.00 0.00 0.00 42 1016.9
20240529234438 82 208 10.0 12.0 0.00 0.00 0.00 42 1017.4
20240529233936 82 208 10.0 12.0 0.00 0.00 0.00 42 1017.3
20240529233435 82 208 10.0 12.0 0.00 0.00 0.00 42 1017.2
20240529232933 82 208 10.0 12.0 0.00 0.00 0.00 42 1017.2
20240529232431 82 208 10.0 12.0 0.00 0.00 0.00 42 1017.5
20240529231930 83 187 8.0 9.0 0.00 0.00 0.00 42 1017.4
20240529231428 83 187 8.0 9.0 0.00 0.00 0.00 42 1017.4
20240529230926 83 187 8.0 9.0 0.00 0.00 0.00 42 1017.4
20240529230422 83 158 14.0 15.0 0.00 0.00 0.00 41 1017.5
20240529225921 83 177 9.0 10.0 0.00 0.00 0.00 43 1017.7
20240529225420 83 177 9.0 10.0 0.00 0.00 0.00 43 1017.8
20240529224920 82 162 7.0 9.0 0.00 0.00 0.00 44 1017.7
20240529224419 84 172 16.0 18.0 0.00 0.00 0.00 42 1017.8
20240529223919 84 172 16.0 18.0 0.00 0.00 0.00 42 1017.4
20240529223417 0 0.0 0.0 0.00 0.00 0.00 1017.8
20240529222915 84 199 3.0 6.0 0.00 0.00 0.00 42 1017.8
20240529222414 84 199 3.0 6.0 0.00 0.00 0.00 42 1017.9
20240529221913 84 199 3.0 6.0 0.00 0.00 0.00 42 1018.0
20240529221412 84 199 3.0 6.0 0.00 0.00 0.00 42 1017.9
20240529220911 84 199 3.0 6.0 0.00 0.00 0.00 42 1018.1
20240529220409 84 199 3.0 6.0 0.00 0.00 0.00 42 1018.1
20240529215907 84 199 3.0 6.0 0.00 0.00 0.00 42 1018.1
20240529215406 84 199 3.0 6.0 0.00 0.00 0.00 42 1018.0
20240529214904 84 199 3.0 6.0 0.00 0.00 0.00 42 1018.4
20240529214403 84 199 3.0 6.0 0.00 0.00 0.00 42 1018.2
20240529213902 84 199 3.0 6.0 0.00 0.00 0.00 42 1018.4
20240529213401 84 199 3.0 6.0 0.00 0.00 0.00 42 1018.4
20240529212900 82 164 11.0 16.0 0.00 0.00 0.00 44 1018.5
20240529212359 83 197 8.0 19.0 0.00 0.00 0.00 42 1018.7
20240529211858 81 161 10.0 11.0 0.00 0.00 0.00 43 1018.8
20240529211357 83 152 11.0 13.0 0.00 0.00 0.00 42 1018.9
20240529210854 85 188 11.0 16.0 0.00 0.00 0.00 40 1018.7
20240529210353 84 184 6.0 11.0 0.00 0.00 0.00 41 1018.8
20240529205851 84 180 8.0 13.0 0.00 0.00 0.00 42 1019.0
20240529205351 82 203 4.0 13.0 0.00 0.00 0.00 45 1019.1
20240529204847 83 165 7.0 13.0 0.00 0.00 0.00 42 1019.3
20240529204347 84 200 12.0 17.0 0.00 0.00 0.00 41 1019.2
20240529203846 82 191 8.0 13.0 0.00 0.00 0.00 42 1019.6
20240529203346 84 161 8.0 13.0 0.00 0.00 0.00 42 1019.3
20240529202844 84 184 4.0 16.0 0.00 0.00 0.00 42 1019.6
20240529202342 83 175 8.0 9.0 0.00 0.00 0.00 42 1019.7
20240529201842 83 180 5.0 13.0 0.00 0.00 0.00 42 1019.8
20240529201341 81 144 7.0 15.0 0.00 0.00 0.00 44 1019.8
20240529200813 79 189 5.0 15.0 0.00 0.00 0.00 46 1019.8
20240529200313 81 180 5.0 11.0 0.00 0.00 0.00 44 1019.8
20240529195812 82 202 8.0 11.0 0.00 0.00 0.00 43 1020.0
20240529195311 81 200 8.0 9.0 0.00 0.00 0.00 44 1020.0
20240529194810 80 146 11.0 13.0 0.00 0.00 0.00 46 1020.2
20240529194308 82 167 8.0 12.0 0.00 0.00 0.00 45 1020.4
20240529193807 82 161 7.0 12.0 0.00 0.00 0.00 44 1020.6
20240529193306 80 242 8.0 12.0 0.00 0.00 0.00 45 1020.6
20240529192805 80 205 12.0 17.0 0.00 0.00 0.00 44 1020.6
20240529192301 80 168 6.0 9.0 0.00 0.00 0.00 45 1020.9
20240529191800 80 178 8.0 12.0 0.00 0.00 0.00 44 1020.9
20240529191258 79 142 4.0 5.0 0.00 0.00 0.00 47 1020.9
20240529190758 79 142 4.0 5.0 0.00 0.00 0.00 47 1020.9
20240529190256 79 195 7.0 8.0 0.00 0.00 0.00 45 1021.2
20240529185756 80 182 10.0 16.0 0.00 0.00 0.00 45 1021.2
20240529185254 80 205 12.0 13.0 0.00 0.00 0.00 45 1021.2
20240529184752 79 193 7.0 12.0 0.00 0.00 0.00 47 1021.2
20240529184250 78 190 6.0 9.0 0.00 0.00 0.00 49 1021.3
20240529183748 78 198 7.0 14.0 0.00 0.00 0.00 46 1021.5
20240529183247 78 206 11.0 12.0 0.00 0.00 0.00 48 1021.6
20240529182747 78 179 4.0 10.0 0.00 0.00 0.00 47 1021.6
20240529182245 78 162 10.0 14.0 0.00 0.00 0.00 47 1021.8
20240529181744 78 203 11.0 18.0 0.00 0.00 0.00 46 1021.9
20240529181243 78 191 8.0 13.0 0.00 0.00 0.00 47 1022.0
20240529180742 77 160 6.0 14.0 0.00 0.00 0.00 48 1022.0
20240529180240 77 202 8.0 16.0 0.00 0.00 0.00 48 1021.8
20240529175739 77 166 6.0 9.0 0.00 0.00 0.00 45 1022.1
20240529175237 78 201 8.0 8.0 0.00 0.00 0.00 45 1022.3
20240529174737 78 201 8.0 8.0 0.00 0.00 0.00 45 1022.2
20240529174235 77 293 2.0 3.0 0.00 0.00 0.00 47 1022.5
20240529173735 77 293 2.0 3.0 0.00 0.00 0.00 47 1022.3
20240529173233 76 234 7.0 8.0 0.00 0.00 0.00 46 1022.5
20240529172731 76 215 6.0 7.0 0.00 0.00 0.00 47 1022.7
20240529172224 76 200 6.0 8.0 0.00 0.00 0.00 49 1022.7
20240529171722 76 165 3.0 9.0 0.00 0.00 0.00 50 1022.7
20240529171220 73 127 0.0 3.0 0.00 0.00 0.00 54 1022.8
20240529170718 74 332 4.0 5.0 0.00 0.00 0.00 55 1022.9
20240529170218 73 333 0.0 1.0 0.00 0.00 0.00 58 1023.1
20240529165718 74 324 3.0 4.0 0.00 0.00 0.00 58 1023.1
20240529165217 73 36 4.0 4.0 0.00 0.00 0.00 59 1023.4
20240529164716 71 324 5.0 6.0 0.00 0.00 0.00 62 1023.4
20240529164214 71 331 4.0 5.0 0.00 0.00 0.00 63 1023.4
20240529163713 72 189 2.0 6.0 0.00 0.00 0.00 62 1023.6
20240529163212 70 10 2.0 2.0 0.00 0.00 0.00 63 1023.5
20240529162710 70 312 2.0 4.0 0.00 0.00 0.00 63 1023.8
20240529162208 70 268 4.0 6.0 0.00 0.00 0.00 66 1023.5
20240529161705 69 189 2.0 7.0 0.00 0.00 0.00 66 1023.6
20240529161203 69 95 2.0 3.0 0.00 0.00 0.00 65 1023.7
20240529160702 69 98 3.0 4.0 0.00 0.00 0.00 65 1023.9
20240529160202 68 238 4.0 4.0 0.00 0.00 0.00 68 1023.8
20240529155700 68 336 4.0 5.0 0.00 0.00 0.00 71 1023.7
20240529155159 68 336 2.0 3.0 0.00 0.00 0.00 68 1023.8
20240529154658 68 284 2.0 5.0 0.00 0.00 0.00 68 1023.8
20240529154157 68 211 3.0 3.0 0.00 0.00 0.00 67 1024.4
20240529153655 69 258 2.0 4.0 0.00 0.00 0.00 65 1024.2
20240529153155 69 201 4.0 4.0 0.00 0.00 0.00 68 1024.5
20240529152654 68 325 2.0 2.0 0.00 0.00 0.00 68 1024.5
20240529152152 67 131 4.0 5.0 0.00 0.00 0.00 71 1024.4
20240529151651 0 0.0 0.0 0.00 0.00 0.00 1024.6
20240529151151 0 0.0 0.0 0.00 0.00 0.00 1024.4
20240529150649 0 0.0 0.0 0.00 0.00 0.00 1024.5
20240529150148 0 0.0 0.0 0.00 0.00 0.00 1024.5
20240529145646 0 0.0 0.0 0.00 0.00 0.00 1024.7
20240529145146 0 0.0 0.0 0.00 0.00 0.00 1024.5
20240529144644 0 0.0 0.0 0.00 0.00 0.00 1024.6
20240529144143 0 0.0 0.0 0.00 0.00 0.00 1024.5
20240529143642 0 0.0 0.0 0.00 0.00 0.00 1024.4
20240529143141 0 0.0 0.0 0.00 0.00 0.00 1024.5
20240529142639 0 0.0 0.0 0.00 0.00 0.00 1024.4
20240529142139 0 0.0 0.0 0.00 0.00 0.00 1024.2
20240529141638 0 0.0 0.0 0.00 0.00 0.00 1024.2
20240529141137 0 0.0 0.0 0.00 0.00 0.00 1024.2
20240529140637 0 0.0 0.0 0.00 0.00 0.00 1024.1
20240529140135 0 0.0 0.0 0.00 0.00 0.00 1024.4
20240529135633 0 0.0 0.0 0.00 0.00 0.00 1024.1
20240529135132 0 0.0 0.0 0.00 0.00 0.00 1024.0
20240529134630 0 0.0 0.0 0.00 0.00 0.00 1023.9
20240529134129 0 0.0 0.0 0.00 0.00 0.00 1023.9
20240529133629 0 0.0 0.0 0.00 0.00 0.00 1023.9
20240529133127 0 0.0 0.0 0.00 0.00 0.00 1023.8
20240529132627 0 0.0 0.0 0.00 0.00 0.00 1023.7
20240529132126 0 0.0 0.0 0.00 0.00 0.00 1024.0
20240529131624 0 0.0 0.0 0.00 0.00 0.00 1023.6
20240529131123 0 0.0 0.0 0.00 0.00 0.00 1023.9
20240529130622 0 0.0 0.0 0.00 0.00 0.00 1023.6
20240529130121 0 0.0 0.0 0.00 0.00 0.00 1023.5
20240529125620 0 0.0 0.0 0.00 0.00 0.00 1023.6
20240529125119 0 0.0 0.0 0.00 0.00 0.00 1023.5
20240529124618 0 0.0 0.0 0.00 0.00 0.00 1023.5
20240529124117 0 0.0 0.0 0.00 0.00 0.00 1023.5
20240529123617 0 0.0 0.0 0.00 0.00 0.00 1023.4
20240529123116 0 0.0 0.0 0.00 0.00 0.00 1023.5
20240529122615 0 0.0 0.0 0.00 0.00 0.00 1023.7
20240529122115 0 0.0 0.0 0.00 0.00 0.00 1023.8
20240529121614 0 0.0 0.0 0.00 0.00 0.00 1023.7
20240529121112 0 0.0 0.0 0.00 0.00 0.00 1023.7
20240529120610 0 0.0 0.0 0.00 0.00 0.00 1023.7
20240529120109 0 0.0 0.0 0.00 0.00 0.00 1023.7
20240529115607 0 0.0 0.0 0.00 0.00 0.00 1023.0
20240529115105 0 0.0 0.0 0.00 0.00 0.00 1023.2
20240529114603 0 0.0 0.0 0.00 0.00 0.00 1023.2
20240529114102 0 0.0 0.0 0.00 0.00 0.00 1023.1
20240529113602 0 0.0 0.0 0.00 0.00 0.00 1023.1
20240529113100 0 0.0 0.0 0.00 0.00 0.00 1023.1
20240529112559 0 0.0 0.0 0.00 0.00 0.00 1023.2
20240529112058 0 0.0 0.0 0.00 0.00 0.00 1023.2
20240529111557 0 0.0 0.0 0.00 0.00 0.00 1022.9
20240529111056 0 0.0 0.0 0.00 0.00 0.00 1022.9
20240529110555 0 0.0 0.0 0.00 0.00 0.00 1023.0
20240529110056 0 0.0 0.0 0.00 0.00 0.00 1023.0
20240529105553 0 0.0 0.0 0.00 0.00 0.00 1023.0
20240529105052 0 0.0 0.0 0.00 0.00 0.00 1023.4
20240529104551 0 0.0 0.0 0.00 0.00 0.00 1023.1
20240529104049 0 0.0 0.0 0.00 0.00 0.00 1023.2
20240529103548 0 0.0 0.0 0.00 0.00 0.00 1023.0
20240529103047 0 0.0 0.0 0.00 0.00 0.00 1022.8
20240529102547 0 0.0 0.0 0.00 0.00 0.00 1022.5
20240529102047 0 0.0 0.0 0.00 0.00 0.00 1022.8
20240529101545 0 0.0 0.0 0.00 0.00 0.00 1022.7
20240529101043 0 0.0 0.0 0.00 0.00 0.00 1022.6
20240529100543 0 0.0 0.0 0.00 0.00 0.00 1022.6
20240529100042 0 0.0 0.0 0.00 0.00 0.00 1022.7
20240529095541 0 0.0 0.0 0.00 0.00 0.00 1022.7
20240529095041 0 0.0 0.0 0.00 0.00 0.00 1022.2
20240529094540 0 0.0 0.0 0.00 0.00 0.00 1022.3
20240529094039 0 0.0 0.0 0.00 0.00 0.00 1022.1
20240529093539 0 0.0 0.0 0.00 0.00 0.00 1022.0
20240529093037 0 0.0 0.0 0.00 0.00 0.00 1021.8
20240529092536 0 0.0 0.0 0.00 0.00 0.00 1022.1
20240529092036 0 0.0 0.0 0.00 0.00 0.00 1022.1
20240529091534 0 0.0 0.0 0.00 0.00 0.00 1022.1
20240529091033 0 0.0 0.0 0.00 0.00 0.00 1021.9
20240529090532 0 0.0 0.0 0.00 0.00 0.00 1021.6
20240529090030 0 0.0 0.0 0.00 0.00 0.00 1021.6
20240529085530 0 0.0 0.0 0.00 0.00 0.00 1021.6
20240529085029 0 0.0 0.0 0.00 0.00 0.00 1021.3
20240529084527 0 0.0 0.0 0.00 0.00 0.00 1021.6
20240529084027 0 0.0 0.0 0.00 0.00 0.00 1021.5
20240529083526 0 0.0 0.0 0.00 0.00 0.00 1021.2
20240529083024 0 0.0 0.0 0.00 0.00 0.00 1021.6
20240529082522 0 0.0 0.0 0.00 0.00 0.00 1021.3
20240529082021 0 0.0 0.0 0.00 0.00 0.00 1021.2
20240529081519 0 0.0 0.0 0.00 0.00 0.00 1020.9
20240529081018 0 0.0 0.0 0.00 0.00 0.00 1021.1
20240529080517 0 0.0 0.0 0.00 0.00 0.00 1020.8
20240529080015 0 0.0 0.0 0.00 0.00 0.00 1020.9
20240529075516 0 0.0 0.0 0.00 0.00 0.00 1021.1
20240529075014 0 0.0 0.0 0.00 0.00 0.00 1021.0
20240529074513 0 0.0 0.0 0.00 0.00 0.00 1020.9
20240529074012 0 0.0 0.0 0.00 0.00 0.00 1021.0
20240529073512 0 0.0 0.0 0.00 0.00 0.00 1020.8
20240529073012 0 0.0 0.0 0.00 0.00 0.00 1020.2
20240529072510 0 0.0 0.0 0.00 0.00 0.00 1020.3
20240529072009 0 0.0 0.0 0.00 0.00 0.00 1020.6
20240529071506 0 0.0 0.0 0.00 0.00 0.00 1020.1